sensor_id;sensor_type;location;lat;lon;timestamp;P1;durP1;ratioP1;P2;durP2;ratioP2
53961;SDS011;39868;53.398;6.564;2023-12-22T00:00:06;12.27;;;11.10;;
53961;SDS011;39868;53.398;6.564;2023-12-22T00:02:34;18.87;;;12.90;;
53961;SDS011;39868;53.398;6.564;2023-12-22T00:05:02;16.63;;;11.53;;
53961;SDS011;39868;53.398;6.564;2023-12-22T00:07:29;10.70;;;9.67;;
53961;SDS011;39868;53.398;6.564;2023-12-22T00:09:57;12.33;;;11.23;;
53961;SDS011;39868;53.398;6.564;2023-12-22T00:12:24;13.83;;;11.47;;
53961;SDS011;39868;53.398;6.564;2023-12-22T00:14:51;12.33;;;11.43;;
53961;SDS011;39868;53.398;6.564;2023-12-22T00:17:18;15.97;;;12.47;;
53961;SDS011;39868;53.398;6.564;2023-12-22T00:19:45;18.57;;;13.33;;
53961;SDS011;39868;53.398;6.564;2023-12-22T00:22:13;24.13;;;12.70;;
53961;SDS011;39868;53.398;6.564;2023-12-22T00:24:40;20.03;;;12.20;;
53961;SDS011;39868;53.398;6.564;2023-12-22T00:27:08;17.97;;;11.90;;
53961;SDS011;39868;53.398;6.564;2023-12-22T00:29:35;17.77;;;12.30;;
53961;SDS011;39868;53.398;6.564;2023-12-22T00:32:03;18.20;;;12.33;;
53961;SDS011;39868;53.398;6.564;2023-12-22T00:34:31;16.20;;;12.10;;
53961;SDS011;39868;53.398;6.564;2023-12-22T00:36:58;14.53;;;11.23;;
53961;SDS011;39868;53.398;6.564;2023-12-22T00:39:26;22.10;;;12.07;;
53961;SDS011;39868;53.398;6.564;2023-12-22T00:41:54;15.23;;;10.83;;
53961;SDS011;39868;53.398;6.564;2023-12-22T00:44:21;15.37;;;10.40;;
53961;SDS011;39868;53.398;6.564;2023-12-22T00:46:48;15.20;;;11.07;;
53961;SDS011;39868;53.398;6.564;2023-12-22T00:49:16;13.57;;;10.43;;
53961;SDS011;39868;53.398;6.564;2023-12-22T00:51:44;11.83;;;10.20;;
53961;SDS011;39868;53.398;6.564;2023-12-22T00:54:12;12.03;;;10.03;;
53961;SDS011;39868;53.398;6.564;2023-12-22T00:56:39;15.87;;;9.93;;
53961;SDS011;39868;53.398;6.564;2023-12-22T00:59:06;18.87;;;10.93;;
53961;SDS011;39868;53.398;6.564;2023-12-22T01:01:37;17.17;;;9.83;;
53961;SDS011;39868;53.398;6.564;2023-12-22T01:04:05;17.80;;;10.03;;
53961;SDS011;39868;53.398;6.564;2023-12-22T01:06:36;22.50;;;9.87;;
53961;SDS011;39868;53.398;6.564;2023-12-22T01:09:04;19.13;;;9.83;;
53961;SDS011;39868;53.398;6.564;2023-12-22T01:11:32;22.33;;;10.43;;
53961;SDS011;39868;53.398;6.564;2023-12-22T01:13:59;14.63;;;13.33;;
53961;SDS011;39868;53.398;6.564;2023-12-22T01:16:27;18.53;;;14.27;;
53961;SDS011;39868;53.398;6.564;2023-12-22T01:18:54;16.27;;;14.70;;
53961;SDS011;39868;53.398;6.564;2023-12-22T01:21:21;16.97;;;14.13;;
53961;SDS011;39868;53.398;6.564;2023-12-22T01:23:49;19.57;;;15.50;;
53961;SDS011;39868;53.398;6.564;2023-12-22T01:26:16;16.97;;;14.57;;
53961;SDS011;39868;53.398;6.564;2023-12-22T01:28:43;18.83;;;14.47;;
53961;SDS011;39868;53.398;6.564;2023-12-22T01:31:10;17.73;;;14.43;;
53961;SDS011;39868;53.398;6.564;2023-12-22T01:33:38;22.33;;;14.47;;
53961;SDS011;39868;53.398;6.564;2023-12-22T01:36:05;17.33;;;14.20;;
53961;SDS011;39868;53.398;6.564;2023-12-22T01:38:32;17.20;;;11.63;;
53961;SDS011;39868;53.398;6.564;2023-12-22T01:40:59;20.67;;;13.60;;
53961;SDS011;39868;53.398;6.564;2023-12-22T01:43:27;19.20;;;13.77;;
53961;SDS011;39868;53.398;6.564;2023-12-22T01:45:55;15.73;;;8.90;;
53961;SDS011;39868;53.398;6.564;2023-12-22T01:48:24;12.20;;;9.82;;
53961;SDS011;39868;53.398;6.564;2023-12-22T01:50:52;14.23;;;10.45;;
53961;SDS011;39868;53.398;6.564;2023-12-22T01:53:21;13.40;;;9.33;;
53961;SDS011;39868;53.398;6.564;2023-12-22T01:55:50;13.73;;;10.27;;
53961;SDS011;39868;53.398;6.564;2023-12-22T01:58:19;16.05;;;9.10;;
53961;SDS011;39868;53.398;6.564;2023-12-22T02:00:48;11.00;;;9.00;;
53961;SDS011;39868;53.398;6.564;2023-12-22T02:03:16;14.43;;;9.63;;
53961;SDS011;39868;53.398;6.564;2023-12-22T02:05:43;18.52;;;10.73;;
53961;SDS011;39868;53.398;6.564;2023-12-22T02:08:11;10.60;;;6.90;;
53961;SDS011;39868;53.398;6.564;2023-12-22T02:10:39;8.13;;;7.20;;
53961;SDS011;39868;53.398;6.564;2023-12-22T02:13:06;11.40;;;6.95;;
53961;SDS011;39868;53.398;6.564;2023-12-22T02:15:35;13.10;;;7.33;;
53961;SDS011;39868;53.398;6.564;2023-12-22T02:20:35;15.75;;;9.52;;
53961;SDS011;39868;53.398;6.564;2023-12-22T02:23:04;9.63;;;8.73;;
53961;SDS011;39868;53.398;6.564;2023-12-22T02:25:31;9.73;;;8.57;;
53961;SDS011;39868;53.398;6.564;2023-12-22T02:28:03;15.47;;;9.17;;
53961;SDS011;39868;53.398;6.564;2023-12-22T02:33:10;16.13;;;9.00;;
53961;SDS011;39868;53.398;6.564;2023-12-22T02:35:42;18.53;;;7.33;;
53961;SDS011;39868;53.398;6.564;2023-12-22T02:38:10;13.93;;;7.73;;
53961;SDS011;39868;53.398;6.564;2023-12-22T02:40:39;18.93;;;9.67;;
53961;SDS011;39868;53.398;6.564;2023-12-22T02:43:07;15.00;;;9.60;;
53961;SDS011;39868;53.398;6.564;2023-12-22T02:45:36;16.97;;;8.83;;
53961;SDS011;39868;53.398;6.564;2023-12-22T02:48:03;12.50;;;8.33;;
53961;SDS011;39868;53.398;6.564;2023-12-22T02:50:31;20.77;;;8.47;;
53961;SDS011;39868;53.398;6.564;2023-12-22T02:52:58;15.53;;;9.13;;
53961;SDS011;39868;53.398;6.564;2023-12-22T02:55:25;14.87;;;6.70;;
53961;SDS011;39868;53.398;6.564;2023-12-22T02:57:53;7.40;;;6.70;;
53961;SDS011;39868;53.398;6.564;2023-12-22T03:00:20;8.97;;;8.17;;
53961;SDS011;39868;53.398;6.564;2023-12-22T03:02:47;14.80;;;9.00;;
53961;SDS011;39868;53.398;6.564;2023-12-22T03:05:15;9.93;;;8.87;;
53961;SDS011;39868;53.398;6.564;2023-12-22T03:07:43;12.80;;;9.40;;
53961;SDS011;39868;53.398;6.564;2023-12-22T03:10:10;14.47;;;8.97;;
53961;SDS011;39868;53.398;6.564;2023-12-22T03:12:38;12.50;;;8.40;;
53961;SDS011;39868;53.398;6.564;2023-12-22T03:15:05;14.20;;;9.43;;
53961;SDS011;39868;53.398;6.564;2023-12-22T03:17:33;12.30;;;8.87;;
53961;SDS011;39868;53.398;6.564;2023-12-22T03:20:00;9.27;;;8.40;;
53961;SDS011;39868;53.398;6.564;2023-12-22T03:22:28;11.67;;;9.07;;
53961;SDS011;39868;53.398;6.564;2023-12-22T03:24:55;16.13;;;8.23;;
53961;SDS011;39868;53.398;6.564;2023-12-22T03:27:22;13.23;;;9.10;;
53961;SDS011;39868;53.398;6.564;2023-12-22T03:29:50;11.57;;;9.67;;
53961;SDS011;39868;53.398;6.564;2023-12-22T03:32:17;12.10;;;9.17;;
53961;SDS011;39868;53.398;6.564;2023-12-22T03:34:44;19.53;;;9.80;;
53961;SDS011;39868;53.398;6.564;2023-12-22T03:37:12;17.17;;;10.00;;
53961;SDS011;39868;53.398;6.564;2023-12-22T03:39:39;14.80;;;9.50;;
53961;SDS011;39868;53.398;6.564;2023-12-22T03:42:06;16.40;;;10.07;;
53961;SDS011;39868;53.398;6.564;2023-12-22T03:44:33;16.53;;;9.53;;
53961;SDS011;39868;53.398;6.564;2023-12-22T03:47:01;19.23;;;10.30;;
53961;SDS011;39868;53.398;6.564;2023-12-22T03:49:28;15.07;;;7.60;;
53961;SDS011;39868;53.398;6.564;2023-12-22T03:51:55;20.33;;;7.63;;
53961;SDS011;39868;53.398;6.564;2023-12-22T03:54:22;12.23;;;7.73;;
53961;SDS011;39868;53.398;6.564;2023-12-22T03:56:50;13.43;;;7.73;;
53961;SDS011;39868;53.398;6.564;2023-12-22T03:59:17;7.20;;;6.03;;
53961;SDS011;39868;53.398;6.564;2023-12-22T04:01:50;8.07;;;6.90;;
53961;SDS011;39868;53.398;6.564;2023-12-22T04:04:19;12.83;;;7.30;;
53961;SDS011;39868;53.398;6.564;2023-12-22T04:06:49;13.63;;;11.43;;
53961;SDS011;39868;53.398;6.564;2023-12-22T04:09:17;17.10;;;11.57;;
53961;SDS011;39868;53.398;6.564;2023-12-22T04:11:44;15.77;;;10.60;;
53961;SDS011;39868;53.398;6.564;2023-12-22T04:14:11;18.63;;;11.83;;
53961;SDS011;39868;53.398;6.564;2023-12-22T04:16:38;12.43;;;10.50;;
53961;SDS011;39868;53.398;6.564;2023-12-22T04:19:06;19.03;;;10.67;;
53961;SDS011;39868;53.398;6.564;2023-12-22T04:21:37;13.17;;;11.30;;
53961;SDS011;39868;53.398;6.564;2023-12-22T04:24:05;16.73;;;10.40;;
53961;SDS011;39868;53.398;6.564;2023-12-22T04:26:32;14.80;;;9.30;;
53961;SDS011;39868;53.398;6.564;2023-12-22T04:28:59;15.50;;;8.23;;
53961;SDS011;39868;53.398;6.564;2023-12-22T04:31:27;19.63;;;8.43;;
53961;SDS011;39868;53.398;6.564;2023-12-22T04:33:54;12.87;;;8.50;;
53961;SDS011;39868;53.398;6.564;2023-12-22T04:36:22;9.47;;;8.50;;
53961;SDS011;39868;53.398;6.564;2023-12-22T04:38:50;10.70;;;8.30;;
53961;SDS011;39868;53.398;6.564;2023-12-22T04:41:17;15.33;;;8.57;;
53961;SDS011;39868;53.398;6.564;2023-12-22T04:43:44;10.07;;;8.87;;
53961;SDS011;39868;53.398;6.564;2023-12-22T04:46:11;11.80;;;10.70;;
53961;SDS011;39868;53.398;6.564;2023-12-22T04:48:38;14.77;;;12.00;;
53961;SDS011;39868;53.398;6.564;2023-12-22T04:51:06;14.20;;;11.23;;
53961;SDS011;39868;53.398;6.564;2023-12-22T04:53:33;11.13;;;8.50;;
53961;SDS011;39868;53.398;6.564;2023-12-22T04:56:01;15.17;;;8.93;;
53961;SDS011;39868;53.398;6.564;2023-12-22T04:58:28;14.57;;;9.50;;
53961;SDS011;39868;53.398;6.564;2023-12-22T05:00:55;13.27;;;10.40;;
53961;SDS011;39868;53.398;6.564;2023-12-22T05:03:22;12.63;;;10.40;;
53961;SDS011;39868;53.398;6.564;2023-12-22T05:05:50;26.80;;;10.98;;
53961;SDS011;39868;53.398;6.564;2023-12-22T05:08:17;11.57;;;8.67;;
53961;SDS011;39868;53.398;6.564;2023-12-22T05:10:44;15.40;;;9.10;;
53961;SDS011;39868;53.398;6.564;2023-12-22T05:13:11;15.43;;;8.93;;
53961;SDS011;39868;53.398;6.564;2023-12-22T05:15:39;17.77;;;8.40;;
53961;SDS011;39868;53.398;6.564;2023-12-22T05:18:06;18.02;;;8.82;;
53961;SDS011;39868;53.398;6.564;2023-12-22T05:20:34;16.40;;;9.07;;
53961;SDS011;39868;53.398;6.564;2023-12-22T05:23:01;11.75;;;8.13;;
53961;SDS011;39868;53.398;6.564;2023-12-22T05:25:28;13.63;;;9.30;;
53961;SDS011;39868;53.398;6.564;2023-12-22T05:27:56;18.95;;;9.57;;
53961;SDS011;39868;53.398;6.564;2023-12-22T05:30:24;14.30;;;8.52;;
53961;SDS011;39868;53.398;6.564;2023-12-22T05:32:51;18.02;;;10.13;;
53961;SDS011;39868;53.398;6.564;2023-12-22T05:35:18;15.73;;;9.40;;
53961;SDS011;39868;53.398;6.564;2023-12-22T05:37:46;19.23;;;8.90;;
53961;SDS011;39868;53.398;6.564;2023-12-22T05:40:15;14.43;;;8.90;;
53961;SDS011;39868;53.398;6.564;2023-12-22T05:42:43;13.98;;;8.27;;
53961;SDS011;39868;53.398;6.564;2023-12-22T05:45:10;8.52;;;7.72;;
53961;SDS011;39868;53.398;6.564;2023-12-22T05:47:37;10.55;;;8.98;;
53961;SDS011;39868;53.398;6.564;2023-12-22T05:50:05;11.48;;;8.70;;
53961;SDS011;39868;53.398;6.564;2023-12-22T05:52:34;18.75;;;8.43;;
53961;SDS011;39868;53.398;6.564;2023-12-22T05:55:01;10.55;;;7.72;;
53961;SDS011;39868;53.398;6.564;2023-12-22T05:57:29;11.55;;;8.48;;
53961;SDS011;39868;53.398;6.564;2023-12-22T05:59:56;18.50;;;8.93;;
53961;SDS011;39868;53.398;6.564;2023-12-22T06:02:24;16.92;;;9.73;;
53961;SDS011;39868;53.398;6.564;2023-12-22T06:04:52;14.43;;;9.07;;
53961;SDS011;39868;53.398;6.564;2023-12-22T06:07:20;19.17;;;9.10;;
53961;SDS011;39868;53.398;6.564;2023-12-22T06:09:47;15.05;;;8.75;;
53961;SDS011;39868;53.398;6.564;2023-12-22T06:12:14;14.27;;;8.45;;
53961;SDS011;39868;53.398;6.564;2023-12-22T06:14:41;16.98;;;8.18;;
53961;SDS011;39868;53.398;6.564;2023-12-22T06:17:09;11.73;;;10.18;;
53961;SDS011;39868;53.398;6.564;2023-12-22T06:19:36;15.18;;;9.35;;
53961;SDS011;39868;53.398;6.564;2023-12-22T06:22:03;15.85;;;9.57;;
53961;SDS011;39868;53.398;6.564;2023-12-22T06:24:34;11.35;;;9.30;;
53961;SDS011;39868;53.398;6.564;2023-12-22T06:27:02;15.05;;;9.15;;
53961;SDS011;39868;53.398;6.564;2023-12-22T06:29:30;13.40;;;9.32;;
53961;SDS011;39868;53.398;6.564;2023-12-22T06:31:58;12.98;;;9.30;;
53961;SDS011;39868;53.398;6.564;2023-12-22T06:34:25;15.82;;;8.48;;
53961;SDS011;39868;53.398;6.564;2023-12-22T06:36:52;12.90;;;8.48;;
53961;SDS011;39868;53.398;6.564;2023-12-22T06:39:20;15.43;;;8.88;;
53961;SDS011;39868;53.398;6.564;2023-12-22T06:41:47;12.55;;;9.45;;
53961;SDS011;39868;53.398;6.564;2023-12-22T06:44:15;11.73;;;8.50;;
53961;SDS011;39868;53.398;6.564;2023-12-22T06:46:42;10.23;;;8.20;;
53961;SDS011;39868;53.398;6.564;2023-12-22T06:49:09;11.70;;;7.53;;
53961;SDS011;39868;53.398;6.564;2023-12-22T06:51:36;13.73;;;10.00;;
53961;SDS011;39868;53.398;6.564;2023-12-22T06:54:04;9.48;;;7.22;;
53961;SDS011;39868;53.398;6.564;2023-12-22T06:56:33;13.13;;;4.97;;
53961;SDS011;39868;53.398;6.564;2023-12-22T06:59:01;11.13;;;6.00;;
53961;SDS011;39868;53.398;6.564;2023-12-22T07:01:30;13.18;;;8.25;;
53961;SDS011;39868;53.398;6.564;2023-12-22T07:03:58;11.27;;;10.20;;
53961;SDS011;39868;53.398;6.564;2023-12-22T07:06:27;13.90;;;12.38;;
53961;SDS011;39868;53.398;6.564;2023-12-22T07:11:37;13.98;;;12.82;;
53961;SDS011;39868;53.398;6.564;2023-12-22T07:14:04;14.33;;;13.10;;
53961;SDS011;39868;53.398;6.564;2023-12-22T07:16:32;14.83;;;13.50;;
53961;SDS011;39868;53.398;6.564;2023-12-22T07:19:01;15.00;;;13.87;;
53961;SDS011;39868;53.398;6.564;2023-12-22T07:21:28;14.30;;;13.30;;
53961;SDS011;39868;53.398;6.564;2023-12-22T07:23:55;15.33;;;14.10;;
53961;SDS011;39868;53.398;6.564;2023-12-22T07:26:25;15.70;;;14.23;;
53961;SDS011;39868;53.398;6.564;2023-12-22T07:28:53;14.63;;;13.83;;
53961;SDS011;39868;53.398;6.564;2023-12-22T07:31:21;13.60;;;12.80;;
53961;SDS011;39868;53.398;6.564;2023-12-22T07:33:48;14.27;;;13.17;;
53961;SDS011;39868;53.398;6.564;2023-12-22T07:36:15;14.87;;;13.73;;
53961;SDS011;39868;53.398;6.564;2023-12-22T07:38:46;16.43;;;14.67;;
53961;SDS011;39868;53.398;6.564;2023-12-22T07:41:13;14.33;;;13.10;;
53961;SDS011;39868;53.398;6.564;2023-12-22T07:43:42;16.37;;;15.10;;
53961;SDS011;39868;53.398;6.564;2023-12-22T07:46:16;16.53;;;15.00;;
53961;SDS011;39868;53.398;6.564;2023-12-22T07:48:49;16.27;;;15.07;;
53961;SDS011;39868;53.398;6.564;2023-12-22T07:51:18;17.10;;;15.97;;
53961;SDS011;39868;53.398;6.564;2023-12-22T07:53:45;18.67;;;17.20;;
53961;SDS011;39868;53.398;6.564;2023-12-22T07:56:12;16.97;;;15.77;;
53961;SDS011;39868;53.398;6.564;2023-12-22T07:58:40;17.67;;;16.57;;
53961;SDS011;39868;53.398;6.564;2023-12-22T08:01:07;17.97;;;16.33;;
53961;SDS011;39868;53.398;6.564;2023-12-22T08:03:34;16.73;;;15.60;;
53961;SDS011;39868;53.398;6.564;2023-12-22T08:06:04;16.33;;;15.03;;
53961;SDS011;39868;53.398;6.564;2023-12-22T08:08:33;17.37;;;15.87;;
53961;SDS011;39868;53.398;6.564;2023-12-22T08:11:01;16.97;;;15.77;;
53961;SDS011;39868;53.398;6.564;2023-12-22T08:13:28;16.13;;;14.90;;
53961;SDS011;39868;53.398;6.564;2023-12-22T08:15:55;17.27;;;15.50;;
53961;SDS011;39868;53.398;6.564;2023-12-22T08:18:22;17.03;;;15.73;;
53961;SDS011;39868;53.398;6.564;2023-12-22T08:20:50;15.83;;;14.60;;
53961;SDS011;39868;53.398;6.564;2023-12-22T08:23:17;15.97;;;14.63;;
53961;SDS011;39868;53.398;6.564;2023-12-22T08:25:46;17.13;;;15.27;;
53961;SDS011;39868;53.398;6.564;2023-12-22T08:28:14;17.73;;;15.43;;
53961;SDS011;39868;53.398;6.564;2023-12-22T08:30:42;16.40;;;14.83;;
53961;SDS011;39868;53.398;6.564;2023-12-22T08:33:09;17.90;;;15.40;;
53961;SDS011;39868;53.398;6.564;2023-12-22T08:35:37;19.57;;;15.10;;
53961;SDS011;39868;53.398;6.564;2023-12-22T08:38:04;15.33;;;14.00;;
53961;SDS011;39868;53.398;6.564;2023-12-22T08:40:31;15.70;;;14.40;;
53961;SDS011;39868;53.398;6.564;2023-12-22T08:42:59;15.73;;;14.33;;
53961;SDS011;39868;53.398;6.564;2023-12-22T08:45:28;15.40;;;14.15;;
53961;SDS011;39868;53.398;6.564;2023-12-22T08:47:56;15.40;;;14.00;;
53961;SDS011;39868;53.398;6.564;2023-12-22T08:50:24;15.80;;;14.50;;
53961;SDS011;39868;53.398;6.564;2023-12-22T08:52:52;14.95;;;13.65;;
53961;SDS011;39868;53.398;6.564;2023-12-22T08:55:19;14.77;;;13.55;;
53961;SDS011;39868;53.398;6.564;2023-12-22T08:57:47;15.05;;;13.88;;
53961;SDS011;39868;53.398;6.564;2023-12-22T09:00:25;15.93;;;14.27;;
53961;SDS011;39868;53.398;6.564;2023-12-22T09:02:52;15.30;;;13.90;;
53961;SDS011;39868;53.398;6.564;2023-12-22T09:05:20;15.52;;;13.70;;
53961;SDS011;39868;53.398;6.564;2023-12-22T09:07:49;15.07;;;13.07;;
53961;SDS011;39868;53.398;6.564;2023-12-22T09:10:16;14.68;;;13.18;;
53961;SDS011;39868;53.398;6.564;2023-12-22T09:12:44;15.68;;;14.30;;
53961;SDS011;39868;53.398;6.564;2023-12-22T09:15:11;14.65;;;13.65;;
53961;SDS011;39868;53.398;6.564;2023-12-22T09:17:39;13.93;;;12.98;;
53961;SDS011;39868;53.398;6.564;2023-12-22T09:20:11;14.95;;;13.40;;
53961;SDS011;39868;53.398;6.564;2023-12-22T09:22:39;14.57;;;13.38;;
53961;SDS011;39868;53.398;6.564;2023-12-22T09:25:06;15.05;;;13.82;;
53961;SDS011;39868;53.398;6.564;2023-12-22T09:27:35;14.65;;;13.35;;
53961;SDS011;39868;53.398;6.564;2023-12-22T09:30:03;14.85;;;13.52;;
53961;SDS011;39868;53.398;6.564;2023-12-22T09:32:33;14.98;;;13.80;;
53961;SDS011;39868;53.398;6.564;2023-12-22T09:35:02;15.10;;;13.98;;
53961;SDS011;39868;53.398;6.564;2023-12-22T09:37:29;14.00;;;12.80;;
53961;SDS011;39868;53.398;6.564;2023-12-22T09:39:57;14.45;;;13.20;;
53961;SDS011;39868;53.398;6.564;2023-12-22T09:42:24;14.55;;;13.15;;
53961;SDS011;39868;53.398;6.564;2023-12-22T09:44:53;13.82;;;12.82;;
53961;SDS011;39868;53.398;6.564;2023-12-22T09:47:24;14.90;;;13.70;;
53961;SDS011;39868;53.398;6.564;2023-12-22T09:49:53;15.48;;;13.73;;
53961;SDS011;39868;53.398;6.564;2023-12-22T09:52:21;15.30;;;13.60;;
53961;SDS011;39868;53.398;6.564;2023-12-22T09:54:49;15.18;;;13.50;;
53961;SDS011;39868;53.398;6.564;2023-12-22T09:57:17;17.30;;;14.70;;
53961;SDS011;39868;53.398;6.564;2023-12-22T09:59:53;15.60;;;14.05;;
53961;SDS011;39868;53.398;6.564;2023-12-22T10:02:23;15.10;;;13.65;;
53961;SDS011;39868;53.398;6.564;2023-12-22T10:04:55;16.38;;;13.80;;
53961;SDS011;39868;53.398;6.564;2023-12-22T10:07:23;15.07;;;13.70;;
53961;SDS011;39868;53.398;6.564;2023-12-22T10:09:52;15.45;;;14.15;;
53961;SDS011;39868;53.398;6.564;2023-12-22T10:12:21;15.35;;;13.98;;
53961;SDS011;39868;53.398;6.564;2023-12-22T10:14:49;14.27;;;13.02;;
53961;SDS011;39868;53.398;6.564;2023-12-22T10:17:19;15.00;;;13.70;;
53961;SDS011;39868;53.398;6.564;2023-12-22T10:19:46;15.25;;;13.20;;
53961;SDS011;39868;53.398;6.564;2023-12-22T10:22:14;14.32;;;13.18;;
53961;SDS011;39868;53.398;6.564;2023-12-22T10:24:42;14.25;;;13.13;;
53961;SDS011;39868;53.398;6.564;2023-12-22T10:27:21;14.52;;;13.02;;
53961;SDS011;39868;53.398;6.564;2023-12-22T10:29:49;14.95;;;13.30;;
53961;SDS011;39868;53.398;6.564;2023-12-22T10:32:20;13.52;;;12.48;;
53961;SDS011;39868;53.398;6.564;2023-12-22T10:34:48;12.13;;;11.52;;
53961;SDS011;39868;53.398;6.564;2023-12-22T10:37:18;17.52;;;12.88;;
53961;SDS011;39868;53.398;6.564;2023-12-22T10:39:46;12.98;;;12.13;;
53961;SDS011;39868;53.398;6.564;2023-12-22T10:42:15;13.55;;;12.18;;
53961;SDS011;39868;53.398;6.564;2023-12-22T10:44:43;16.00;;;12.63;;
53961;SDS011;39868;53.398;6.564;2023-12-22T10:47:14;13.35;;;12.13;;
53961;SDS011;39868;53.398;6.564;2023-12-22T10:49:43;15.73;;;12.02;;
53961;SDS011;39868;53.398;6.564;2023-12-22T10:52:16;12.50;;;11.57;;
53961;SDS011;39868;53.398;6.564;2023-12-22T10:54:44;12.40;;;11.27;;
53961;SDS011;39868;53.398;6.564;2023-12-22T10:57:11;12.73;;;11.60;;
53961;SDS011;39868;53.398;6.564;2023-12-22T10:59:40;12.63;;;11.38;;
53961;SDS011;39868;53.398;6.564;2023-12-22T11:02:24;11.63;;;10.70;;
53961;SDS011;39868;53.398;6.564;2023-12-22T11:04:59;12.85;;;11.77;;
53961;SDS011;39868;53.398;6.564;2023-12-22T11:07:29;12.40;;;11.25;;
53961;SDS011;39868;53.398;6.564;2023-12-22T11:10:02;12.25;;;11.02;;
53961;SDS011;39868;53.398;6.564;2023-12-22T11:12:38;14.15;;;11.30;;
53961;SDS011;39868;53.398;6.564;2023-12-22T11:15:05;16.95;;;11.32;;
53961;SDS011;39868;53.398;6.564;2023-12-22T11:17:34;11.60;;;10.85;;
53961;SDS011;39868;53.398;6.564;2023-12-22T11:20:12;11.57;;;10.48;;
53961;SDS011;39868;53.398;6.564;2023-12-22T11:22:42;12.05;;;11.00;;
53961;SDS011;39868;53.398;6.564;2023-12-22T11:25:16;11.73;;;10.75;;
53961;SDS011;39868;53.398;6.564;2023-12-22T11:27:44;12.60;;;11.40;;
53961;SDS011;39868;53.398;6.564;2023-12-22T11:30:15;10.98;;;10.27;;
53961;SDS011;39868;53.398;6.564;2023-12-22T11:32:44;11.57;;;10.43;;
53961;SDS011;39868;53.398;6.564;2023-12-22T11:35:13;11.60;;;10.68;;
53961;SDS011;39868;53.398;6.564;2023-12-22T11:37:44;13.10;;;9.98;;
53961;SDS011;39868;53.398;6.564;2023-12-22T11:40:13;14.57;;;10.70;;
53961;SDS011;39868;53.398;6.564;2023-12-22T11:42:42;10.60;;;9.93;;
53961;SDS011;39868;53.398;6.564;2023-12-22T11:45:18;11.10;;;10.40;;
53961;SDS011;39868;53.398;6.564;2023-12-22T11:47:46;12.82;;;10.18;;
53961;SDS011;39868;53.398;6.564;2023-12-22T11:50:27;11.75;;;10.32;;
53961;SDS011;39868;53.398;6.564;2023-12-22T11:53:17;11.10;;;10.20;;
53961;SDS011;39868;53.398;6.564;2023-12-22T11:56:04;13.10;;;10.30;;
53961;SDS011;39868;53.398;6.564;2023-12-22T11:58:39;10.77;;;9.98;;
53961;SDS011;39868;53.398;6.564;2023-12-22T12:01:11;10.77;;;9.73;;
53961;SDS011;39868;53.398;6.564;2023-12-22T12:03:41;10.40;;;9.63;;
53961;SDS011;39868;53.398;6.564;2023-12-22T12:06:17;11.35;;;10.27;;
53961;SDS011;39868;53.398;6.564;2023-12-22T12:08:57;10.75;;;9.77;;
53961;SDS011;39868;53.398;6.564;2023-12-22T12:14:22;11.55;;;10.23;;
53961;SDS011;39868;53.398;6.564;2023-12-22T12:16:56;11.40;;;10.40;;
53961;SDS011;39868;53.398;6.564;2023-12-22T12:19:32;10.60;;;9.60;;
53961;SDS011;39868;53.398;6.564;2023-12-22T12:22:09;11.48;;;10.60;;
53961;SDS011;39868;53.398;6.564;2023-12-22T12:24:39;11.32;;;10.27;;
53961;SDS011;39868;53.398;6.564;2023-12-22T12:27:08;11.82;;;10.50;;
53961;SDS011;39868;53.398;6.564;2023-12-22T12:29:36;10.23;;;9.70;;
53961;SDS011;39868;53.398;6.564;2023-12-22T12:32:06;11.02;;;10.15;;
53961;SDS011;39868;53.398;6.564;2023-12-22T12:34:34;10.30;;;9.52;;
53961;SDS011;39868;53.398;6.564;2023-12-22T12:37:16;11.07;;;10.10;;
53961;SDS011;39868;53.398;6.564;2023-12-22T12:39:47;10.13;;;9.50;;
53961;SDS011;39868;53.398;6.564;2023-12-22T12:42:16;10.43;;;9.80;;
53961;SDS011;39868;53.398;6.564;2023-12-22T12:44:45;10.70;;;10.07;;
53961;SDS011;39868;53.398;6.564;2023-12-22T12:47:14;10.77;;;10.00;;
53961;SDS011;39868;53.398;6.564;2023-12-22T12:49:43;10.63;;;10.02;;
53961;SDS011;39868;53.398;6.564;2023-12-22T12:52:13;11.00;;;10.05;;
53961;SDS011;39868;53.398;6.564;2023-12-22T12:54:41;10.23;;;9.45;;
53961;SDS011;39868;53.398;6.564;2023-12-22T12:57:14;10.57;;;9.70;;
53961;SDS011;39868;53.398;6.564;2023-12-22T12:59:49;10.73;;;9.82;;
53961;SDS011;39868;53.398;6.564;2023-12-22T13:02:17;10.75;;;10.07;;
53961;SDS011;39868;53.398;6.564;2023-12-22T13:04:46;10.82;;;9.90;;
53961;SDS011;39868;53.398;6.564;2023-12-22T13:07:13;9.45;;;8.93;;
53961;SDS011;39868;53.398;6.564;2023-12-22T13:09:51;9.68;;;8.98;;
53961;SDS011;39868;53.398;6.564;2023-12-22T13:12:20;8.75;;;7.93;;
53961;SDS011;39868;53.398;6.564;2023-12-22T13:14:49;11.05;;;8.68;;
53961;SDS011;39868;53.398;6.564;2023-12-22T13:17:17;9.55;;;8.70;;
53961;SDS011;39868;53.398;6.564;2023-12-22T13:19:45;9.68;;;8.70;;
53961;SDS011;39868;53.398;6.564;2023-12-22T13:22:12;9.98;;;9.13;;
53961;SDS011;39868;53.398;6.564;2023-12-22T13:24:41;9.13;;;8.43;;
53961;SDS011;39868;53.398;6.564;2023-12-22T13:27:08;9.32;;;8.52;;
53961;SDS011;39868;53.398;6.564;2023-12-22T13:29:42;10.38;;;8.90;;
53961;SDS011;39868;53.398;6.564;2023-12-22T13:32:20;9.00;;;8.27;;
53961;SDS011;39868;53.398;6.564;2023-12-22T13:34:52;9.32;;;8.38;;
53961;SDS011;39868;53.398;6.564;2023-12-22T13:37:20;14.73;;;8.95;;
53961;SDS011;39868;53.398;6.564;2023-12-22T13:39:49;9.18;;;8.27;;
53961;SDS011;39868;53.398;6.564;2023-12-22T13:42:17;8.30;;;7.70;;
53961;SDS011;39868;53.398;6.564;2023-12-22T13:44:47;8.85;;;8.02;;
53961;SDS011;39868;53.398;6.564;2023-12-22T13:47:16;9.07;;;8.25;;
53961;SDS011;39868;53.398;6.564;2023-12-22T13:49:45;9.70;;;8.93;;
53961;SDS011;39868;53.398;6.564;2023-12-22T13:52:28;8.45;;;7.93;;
53961;SDS011;39868;53.398;6.564;2023-12-22T13:54:59;8.65;;;8.15;;
53961;SDS011;39868;53.398;6.564;2023-12-22T13:57:28;8.52;;;8.00;;
53961;SDS011;39868;53.398;6.564;2023-12-22T13:59:55;8.60;;;8.00;;
53961;SDS011;39868;53.398;6.564;2023-12-22T14:02:23;8.25;;;7.78;;
53961;SDS011;39868;53.398;6.564;2023-12-22T14:04:51;8.38;;;7.60;;
53961;SDS011;39868;53.398;6.564;2023-12-22T14:07:19;8.25;;;7.82;;
53961;SDS011;39868;53.398;6.564;2023-12-22T14:09:46;9.10;;;8.00;;
53961;SDS011;39868;53.398;6.564;2023-12-22T14:12:13;8.20;;;7.55;;
53961;SDS011;39868;53.398;6.564;2023-12-22T14:14:53;9.63;;;8.48;;
53961;SDS011;39868;53.398;6.564;2023-12-22T14:17:21;10.70;;;9.98;;
53961;SDS011;39868;53.398;6.564;2023-12-22T14:19:48;9.52;;;9.02;;
53961;SDS011;39868;53.398;6.564;2023-12-22T14:22:16;9.55;;;8.95;;
53961;SDS011;39868;53.398;6.564;2023-12-22T14:24:43;10.35;;;9.75;;
53961;SDS011;39868;53.398;6.564;2023-12-22T14:27:11;10.40;;;9.80;;
53961;SDS011;39868;53.398;6.564;2023-12-22T14:29:38;10.20;;;9.68;;
53961;SDS011;39868;53.398;6.564;2023-12-22T14:32:07;10.65;;;10.15;;
53961;SDS011;39868;53.398;6.564;2023-12-22T14:34:35;10.25;;;9.70;;
53961;SDS011;39868;53.398;6.564;2023-12-22T14:37:03;10.15;;;9.65;;
53961;SDS011;39868;53.398;6.564;2023-12-22T14:39:30;10.45;;;9.90;;
53961;SDS011;39868;53.398;6.564;2023-12-22T14:41:58;10.35;;;9.82;;
53961;SDS011;39868;53.398;6.564;2023-12-22T14:44:25;11.13;;;10.10;;
53961;SDS011;39868;53.398;6.564;2023-12-22T14:46:53;10.85;;;10.05;;